createdAt,value
2018-09-10T00:02:00.995Z,16.15
2018-09-10T00:04:29.801Z,13.45
2018-09-10T00:06:58.681Z,13.65
2018-09-10T00:09:27.593Z,16.77
2018-09-10T00:11:56.446Z,16.70
2018-09-10T00:14:25.315Z,20.12
2018-09-10T00:16:54.167Z,19.67
2018-09-10T00:19:23.179Z,18.85
2018-09-10T00:21:52.216Z,20.10
2018-09-10T00:24:21.099Z,21.05
2018-09-10T00:26:49.977Z,17.02
2018-09-10T00:29:18.837Z,12.45
2018-09-10T00:31:47.741Z,18.25
2018-09-10T00:34:16.573Z,17.80
2018-09-10T00:36:45.401Z,19.48
2018-09-10T00:39:14.926Z,20.08
2018-09-10T00:41:43.790Z,18.62
2018-09-10T00:44:12.694Z,16.40
2018-09-10T00:46:41.551Z,24.90
2018-09-10T00:49:10.427Z,19.10
2018-09-10T00:51:39.611Z,21.90
2018-09-10T00:54:08.457Z,17.10
2018-09-10T00:56:37.301Z,18.55
2018-09-10T00:59:06.190Z,19.07
2018-09-10T01:01:35.035Z,20.25
2018-09-10T01:04:03.860Z,23.12
2018-09-10T01:06:32.717Z,20.60
2018-09-10T01:09:01.568Z,27.58
2018-09-10T01:11:30.656Z,26.23
2018-09-10T01:13:59.495Z,25.80
2018-09-10T01:16:28.365Z,18.92
2018-09-10T01:18:57.203Z,25.35
2018-09-10T01:21:26.060Z,24.63
2018-09-10T01:23:54.935Z,24.98
2018-09-10T01:26:24.147Z,21.33
2018-09-10T01:28:53.011Z,20.15
2018-09-10T01:31:21.814Z,19.48
2018-09-10T01:33:56.251Z,22.87
2018-09-10T01:36:25.138Z,22.52
2018-09-10T01:38:54.010Z,23.02
2018-09-10T01:41:22.838Z,20.32
2018-09-10T01:43:51.870Z,21.30
2018-09-10T01:46:20.706Z,20.68
2018-09-10T01:48:49.708Z,22.30
2018-09-10T01:51:18.912Z,22.22
2018-09-10T01:53:47.780Z,24.18
2018-09-10T01:56:16.654Z,20.17
2018-09-10T02:00:14.966Z,20.90
2018-09-10T02:02:43.862Z,19.57
2018-09-10T02:05:12.719Z,18.45
2018-09-10T02:07:41.579Z,22.87
2018-09-10T02:10:10.431Z,24.67
2018-09-10T02:12:39.276Z,24.37
2018-09-10T02:15:08.371Z,20.95
2018-09-10T02:17:37.278Z,23.20
2018-09-10T02:20:06.127Z,23.02
2018-09-10T02:22:34.983Z,21.35
2018-09-10T02:25:03.848Z,23.05
2018-09-10T02:27:33.093Z,26.30
2018-09-10T02:30:02.111Z,27.20
2018-09-10T02:32:30.970Z,23.50
2018-09-10T02:35:00.032Z,19.57
2018-09-10T02:37:28.890Z,23.65
2018-09-10T02:39:57.727Z,19.67
2018-09-10T02:42:26.575Z,27.05
2018-09-10T02:44:55.455Z,24.72
2018-09-10T02:47:24.324Z,19.50
2018-09-10T02:49:53.184Z,15.63
2018-09-10T02:52:22.270Z,14.25
2018-09-10T02:54:51.100Z,14.33
2018-09-10T02:57:20.259Z,11.12
2018-09-10T02:59:49.102Z,8.33
2018-09-10T03:02:17.934Z,8.80
2018-09-10T03:04:46.788Z,7.42
2018-09-10T03:07:16.239Z,6.58
2018-09-10T03:09:45.253Z,6.65
2018-09-10T03:12:14.155Z,7.65
2018-09-10T03:14:43.323Z,5.17
2018-09-10T03:17:12.707Z,7.25
2018-09-10T03:19:41.797Z,6.97
2018-09-10T03:22:10.680Z,7.53
2018-09-10T03:24:39.518Z,5.90
2018-09-10T03:27:08.360Z,7.60
2018-09-10T03:29:37.218Z,7.70
2018-09-10T03:32:06.235Z,8.15
2018-09-10T03:34:35.498Z,6.05
2018-09-10T03:37:04.685Z,3.77
2018-09-10T03:39:33.508Z,8.40
2018-09-10T03:42:02.721Z,6.60
2018-09-10T03:44:31.834Z,8.90
2018-09-10T03:47:00.727Z,7.20
2018-09-10T03:49:29.593Z,6.95
2018-09-10T03:51:58.480Z,7.30
2018-09-10T03:54:27.299Z,8.03
2018-09-10T03:56:56.126Z,7.05
2018-09-10T03:59:24.985Z,5.05
2018-09-10T04:01:53.860Z,8.53
2018-09-10T04:04:22.689Z,8.98
2018-09-10T04:06:51.943Z,6.67
2018-09-10T04:09:20.819Z,6.90
2018-09-10T04:11:49.660Z,7.03
2018-09-10T04:14:18.634Z,7.85
2018-09-10T04:16:47.500Z,5.92
2018-09-10T04:19:16.398Z,6.37
2018-09-10T04:21:45.231Z,6.70
2018-09-10T04:24:14.083Z,6.35
2018-09-10T04:26:42.916Z,7.78
2018-09-10T04:29:11.773Z,3.72
2018-09-10T04:31:40.650Z,7.40
2018-09-10T04:34:09.501Z,8.65
2018-09-10T04:36:38.336Z,9.03
2018-09-10T04:39:08.062Z,5.90
2018-09-10T04:41:39.508Z,9.03
2018-09-10T04:44:08.370Z,8.23
2018-09-10T04:46:38.198Z,5.50
2018-09-10T04:49:07.955Z,5.45
2018-09-10T04:51:37.345Z,9.10
2018-09-10T04:54:12.175Z,7.47
2018-09-10T04:56:41.072Z,8.13
2018-09-10T04:59:12.551Z,8.05
2018-09-10T05:01:41.159Z,5.43
2018-09-10T05:04:10.079Z,6.35
2018-09-10T05:06:38.952Z,8.75
2018-09-10T05:09:08.531Z,4.95
2018-09-10T05:11:37.737Z,7.00
2018-09-10T05:14:06.592Z,6.58
2018-09-10T05:16:35.449Z,8.38
2018-09-10T05:19:04.644Z,5.62
2018-09-10T05:21:33.538Z,8.00
2018-09-10T05:24:03.089Z,9.93
2018-09-10T05:26:32.559Z,8.73
2018-09-10T05:29:01.786Z,8.40
2018-09-10T05:31:32.492Z,7.78
2018-09-10T05:34:01.672Z,9.63
2018-09-10T05:36:31.343Z,7.00
2018-09-10T05:39:00.818Z,9.43
2018-09-10T05:41:30.494Z,9.55
2018-09-10T05:44:00.254Z,7.25
2018-09-10T05:46:30.131Z,10.98
2018-09-10T05:49:00.401Z,8.80
2018-09-10T05:51:29.982Z,7.95
2018-09-10T05:54:00.115Z,7.92
2018-09-10T05:56:29.807Z,9.60
2018-09-10T05:58:59.604Z,9.33
2018-09-10T06:01:29.255Z,5.83
2018-09-10T06:03:59.624Z,9.50
2018-09-10T06:06:28.794Z,5.42
2018-09-10T06:08:59.047Z,10.23
2018-09-10T06:11:28.297Z,8.65
2018-09-10T06:13:57.816Z,9.50
2018-09-10T06:16:27.036Z,8.35
2018-09-10T06:18:56.521Z,7.20
2018-09-10T06:21:25.999Z,7.92
2018-09-10T06:23:55.287Z,7.35
2018-09-10T06:26:25.338Z,5.87
2018-09-10T06:28:55.266Z,9.23
2018-09-10T06:31:24.964Z,9.88
2018-09-10T06:33:56.349Z,7.78
2018-09-10T06:36:26.786Z,8.13
2018-09-10T06:38:56.284Z,8.58
2018-09-10T06:41:26.017Z,8.13
2018-09-10T06:43:55.148Z,8.10
2018-09-10T06:46:24.317Z,10.65
2018-09-10T06:48:55.730Z,8.53
2018-09-10T06:51:24.910Z,8.85
2018-09-10T06:53:58.867Z,5.72
2018-09-10T06:56:28.124Z,5.80
2018-09-10T06:58:57.369Z,7.87
2018-09-10T07:01:27.010Z,9.47
2018-09-10T07:03:56.856Z,8.63
2018-09-10T07:06:26.630Z,6.92
2018-09-10T07:08:56.737Z,9.93
2018-09-10T07:11:25.998Z,9.70
2018-09-10T07:13:55.611Z,10.23
2018-09-10T07:16:25.999Z,6.90
2018-09-10T07:18:55.500Z,8.13
2018-09-10T07:21:25.097Z,9.00
2018-09-10T07:23:54.816Z,7.15
2018-09-10T07:26:23.710Z,6.70
2018-09-10T07:28:53.205Z,6.53
2018-09-10T07:31:22.364Z,6.40
2018-09-10T07:33:52.465Z,6.50
2018-09-10T07:36:22.267Z,7.75
2018-09-10T07:38:52.049Z,6.95
2018-09-10T07:41:21.880Z,6.78
2018-09-10T07:43:51.431Z,7.70
2018-09-10T07:46:22.152Z,7.25
2018-09-10T07:48:52.017Z,10.63
2018-09-10T07:51:21.758Z,7.53
2018-09-10T07:53:50.743Z,8.25
2018-09-10T07:56:20.186Z,7.70
2018-09-10T07:58:49.884Z,7.55
2018-09-10T08:01:18.551Z,7.10
2018-09-10T08:03:47.905Z,5.92
2018-09-10T08:06:17.411Z,5.28
2018-09-10T08:08:46.410Z,7.28
2018-09-10T08:11:15.906Z,5.83
2018-09-10T08:13:45.241Z,7.55
2018-09-10T08:16:14.517Z,4.45
2018-09-10T08:18:43.946Z,5.05
2018-09-10T08:21:12.982Z,6.55
2018-09-10T08:23:42.196Z,7.35
2018-09-10T08:26:11.878Z,4.70
2018-09-10T08:28:41.124Z,6.33
2018-09-10T08:31:11.528Z,5.22
2018-09-10T08:33:41.511Z,6.37
2018-09-10T08:36:11.936Z,6.15
2018-09-10T08:38:41.090Z,10.00
2018-09-10T08:41:10.636Z,6.05
2018-09-10T08:43:40.234Z,9.30
2018-09-10T08:46:09.505Z,7.12
2018-09-10T08:48:39.077Z,9.13
2018-09-10T08:51:09.330Z,6.72
2018-09-10T08:53:38.671Z,5.33
2018-09-10T08:56:08.823Z,6.58
2018-09-10T08:58:39.062Z,5.20
2018-09-10T09:01:07.672Z,8.50
2018-09-10T09:03:37.638Z,7.10
2018-09-10T09:06:07.480Z,7.33
2018-09-10T09:08:37.197Z,5.92
2018-09-10T09:11:06.441Z,5.55
2018-09-10T09:13:37.386Z,7.10
2018-09-10T09:16:06.741Z,10.48
2018-09-10T09:18:36.531Z,6.83
2018-09-10T09:21:07.434Z,6.75
2018-09-10T09:23:37.143Z,7.20
2018-09-10T09:26:06.769Z,8.23
2018-09-10T09:28:36.712Z,6.85
2018-09-10T09:31:06.772Z,6.80
2018-09-10T09:33:36.556Z,6.75
2018-09-10T09:36:11.553Z,6.97
2018-09-10T09:38:46.325Z,5.83
2018-09-10T09:41:21.335Z,6.65
2018-09-10T09:43:56.204Z,7.47
2018-09-10T09:46:25.191Z,6.08
2018-09-10T09:48:54.493Z,6.33
2018-09-10T09:51:24.372Z,6.90
2018-09-10T09:53:53.609Z,7.03
2018-09-10T09:56:23.789Z,5.40
2018-09-10T09:58:53.353Z,8.05
2018-09-10T10:01:24.868Z,4.73
2018-09-10T10:03:56.430Z,5.45
2018-09-10T10:06:26.318Z,5.47
2018-09-10T10:08:55.645Z,10.98
2018-09-10T10:11:26.321Z,4.92
2018-09-10T10:13:55.992Z,5.70
2018-09-10T10:16:25.577Z,6.25
2018-09-10T10:18:55.381Z,7.45
2018-09-10T10:21:24.925Z,6.72
2018-09-10T10:23:55.292Z,6.17
2018-09-10T10:26:24.519Z,4.05
2018-09-10T10:28:53.784Z,5.78
2018-09-10T10:31:22.748Z,7.72
2018-09-10T10:33:51.990Z,5.03
2018-09-10T10:36:21.739Z,5.58
2018-09-10T10:38:51.471Z,5.35
2018-09-10T10:41:21.433Z,5.65
2018-09-10T10:43:54.001Z,5.60
2018-09-10T10:46:24.154Z,6.20
2018-09-10T10:48:53.964Z,9.25
2018-09-10T10:51:23.388Z,6.45
2018-09-10T10:53:53.709Z,7.00
2018-09-10T10:56:23.274Z,9.00
2018-09-10T10:58:53.370Z,6.58
2018-09-10T11:01:22.601Z,6.07
2018-09-10T11:03:52.453Z,4.87
2018-09-10T11:06:22.440Z,4.35
2018-09-10T11:08:52.658Z,5.70
2018-09-10T11:11:22.103Z,5.15
2018-09-10T11:13:52.333Z,4.97
2018-09-10T11:16:21.550Z,7.67
2018-09-10T11:18:51.047Z,5.95
2018-09-10T11:21:20.353Z,8.40
2018-09-10T11:23:51.385Z,5.87
2018-09-10T11:26:21.658Z,4.55
2018-09-10T11:28:52.088Z,7.50
2018-09-10T11:31:21.662Z,5.55
2018-09-10T11:33:51.540Z,6.47
2018-09-10T11:36:21.566Z,6.33
2018-09-10T11:38:51.119Z,5.25
2018-09-10T11:41:20.642Z,7.28
2018-09-10T11:43:50.159Z,6.47
2018-09-10T11:46:20.546Z,5.40
2018-09-10T11:48:49.807Z,3.80
2018-09-10T11:51:19.700Z,5.87
2018-09-10T11:53:49.321Z,3.62
2018-09-10T11:56:18.938Z,5.78
2018-09-10T11:58:48.961Z,4.97
2018-09-10T12:01:17.584Z,7.20
2018-09-10T12:03:46.605Z,4.92
2018-09-10T12:06:15.891Z,7.12
2018-09-10T12:08:45.412Z,5.92
2018-09-10T12:11:15.671Z,4.45
2018-09-10T12:13:44.708Z,7.03
2018-09-10T12:16:13.715Z,4.40
2018-09-10T12:18:42.662Z,8.13
2018-09-10T12:21:11.584Z,10.55
2018-09-10T12:23:40.508Z,7.75
2018-09-10T12:26:09.424Z,6.75
2018-09-10T12:28:38.334Z,8.63
2018-09-10T12:31:07.318Z,5.83
2018-09-10T12:33:36.230Z,6.40
2018-09-10T12:36:05.450Z,7.55
2018-09-10T12:38:34.391Z,7.67
2018-09-10T12:41:03.325Z,9.28
2018-09-10T12:43:32.200Z,10.95
2018-09-10T12:46:01.115Z,10.23
2018-09-10T12:48:30.013Z,7.03
2018-09-10T12:50:58.926Z,9.38
2018-09-10T12:53:27.820Z,5.92
2018-09-10T12:55:56.675Z,7.00
2018-09-10T12:58:25.558Z,7.62
2018-09-10T13:00:54.642Z,6.33
2018-09-10T13:03:23.343Z,7.47
2018-09-10T13:05:52.244Z,7.67
2018-09-10T13:08:21.187Z,8.25
2018-09-10T13:10:50.213Z,8.10
2018-09-10T13:13:19.163Z,5.72
2018-09-10T13:15:48.137Z,6.40
2018-09-10T13:18:17.067Z,7.37
2018-09-10T13:20:46.149Z,7.37
2018-09-10T13:26:08.724Z,6.47
2018-09-10T13:28:37.678Z,8.33
2018-09-10T13:31:06.695Z,6.87
2018-09-10T13:33:35.668Z,6.60
2018-09-10T13:36:05.115Z,8.10
2018-09-10T13:38:34.079Z,6.97
2018-09-10T13:41:03.420Z,8.05
2018-09-10T13:43:32.391Z,6.30
2018-09-10T13:46:01.367Z,6.10
2018-09-10T13:48:30.284Z,6.58
2018-09-10T13:50:59.317Z,5.83
2018-09-10T13:53:28.355Z,8.40
2018-09-10T13:55:57.330Z,6.05
2018-09-10T13:58:26.264Z,5.95
2018-09-10T14:00:55.201Z,6.65
2018-09-10T14:03:23.976Z,7.93
2018-09-10T14:05:52.921Z,7.17
2018-09-10T14:08:21.845Z,5.33
2018-09-10T14:10:50.883Z,5.55
2018-09-10T14:13:19.962Z,5.78
2018-09-10T14:15:48.920Z,4.25
2018-09-10T14:18:17.922Z,5.30
2018-09-10T14:20:47.011Z,4.85
2018-09-10T14:23:16.023Z,6.10
2018-09-10T14:25:44.993Z,6.20
2018-09-10T14:28:14.041Z,5.87
2018-09-10T14:30:43.091Z,5.85
2018-09-10T14:33:12.066Z,4.70
2018-09-10T14:35:41.037Z,5.90
2018-09-10T14:38:10.043Z,5.45
2018-09-10T14:40:38.995Z,6.05
2018-09-10T14:43:08.075Z,6.15
2018-09-10T14:45:37.189Z,4.83
2018-09-10T14:48:06.666Z,5.62
2018-09-10T14:50:36.232Z,4.53
2018-09-10T14:53:05.505Z,5.60
2018-09-10T14:55:34.633Z,5.90
2018-09-10T14:58:04.180Z,4.55
2018-09-10T15:00:33.329Z,6.47
2018-09-10T15:03:02.399Z,5.70
2018-09-10T15:05:31.597Z,5.55
2018-09-10T15:08:00.960Z,8.48
2018-09-10T15:10:30.722Z,7.05
2018-09-10T15:14:28.986Z,6.87
2018-09-10T15:16:58.159Z,5.22
2018-09-10T15:19:27.324Z,6.55
2018-09-10T15:21:56.273Z,6.97
2018-09-10T15:24:25.345Z,9.25
2018-09-10T15:26:54.396Z,5.37
2018-09-10T15:29:23.537Z,7.55
2018-09-10T15:31:52.645Z,5.65
2018-09-10T15:34:21.639Z,6.45
2018-09-10T15:36:50.714Z,7.80
2018-09-10T15:39:19.631Z,7.55
2018-09-10T15:41:48.730Z,6.35
2018-09-10T15:44:17.748Z,6.37
2018-09-10T15:46:46.739Z,4.10
2018-09-10T15:49:15.819Z,6.92
2018-09-10T15:51:44.832Z,8.10
2018-09-10T15:54:13.816Z,7.17
2018-09-10T15:56:42.906Z,8.73
2018-09-10T15:59:12.161Z,8.80
2018-09-10T16:01:40.898Z,6.27
2018-09-10T16:04:10.029Z,7.03
2018-09-10T16:06:38.946Z,7.35
2018-09-10T16:09:08.638Z,8.10
2018-09-10T16:11:37.757Z,6.50
2018-09-10T16:14:06.703Z,5.50
2018-09-10T16:16:36.047Z,6.30
2018-09-10T16:19:05.298Z,9.40
2018-09-10T16:21:34.263Z,7.67
2018-09-10T16:24:03.155Z,7.00
2018-09-10T16:26:32.212Z,7.95
2018-09-10T16:29:01.640Z,6.42
2018-09-10T16:31:31.049Z,7.08
2018-09-10T16:34:00.419Z,6.67
2018-09-10T16:36:29.707Z,7.45
2018-09-10T16:38:58.888Z,6.72
2018-09-10T16:41:27.906Z,5.10
2018-09-10T16:43:57.040Z,7.97
2018-09-10T16:46:26.150Z,8.70
2018-09-10T16:48:55.213Z,9.70
2018-09-10T16:51:24.193Z,7.42
2018-09-10T16:53:53.148Z,6.60
2018-09-10T16:56:22.341Z,7.58
2018-09-10T16:58:51.542Z,6.87
2018-09-10T17:01:20.048Z,6.53
2018-09-10T17:03:49.052Z,8.40
2018-09-10T17:06:18.442Z,9.50
2018-09-10T17:08:47.456Z,7.25
2018-09-10T17:11:17.402Z,8.73
2018-09-10T17:13:46.800Z,6.42
2018-09-10T17:16:16.386Z,7.17
2018-09-10T17:18:45.777Z,5.17
2018-09-10T17:21:15.520Z,7.00
2018-09-10T17:23:44.682Z,10.48
2018-09-10T17:26:14.161Z,13.22
2018-09-10T17:28:45.126Z,11.15
2018-09-10T17:31:14.132Z,10.20
2018-09-10T17:33:43.360Z,5.70
2018-09-10T17:36:12.550Z,12.07
2018-09-10T17:38:41.496Z,12.07
2018-09-10T17:41:10.763Z,6.85
2018-09-10T17:43:39.762Z,9.58
2018-09-10T17:46:08.742Z,8.03
2018-09-10T17:48:37.787Z,11.50
2018-09-10T17:51:06.845Z,9.43
2018-09-10T17:53:36.100Z,8.85
2018-09-10T17:56:05.457Z,9.83
2018-09-10T17:58:34.429Z,9.35
2018-09-10T18:01:03.273Z,12.43
2018-09-10T18:03:32.500Z,12.28
2018-09-10T18:06:01.765Z,14.73
2018-09-10T18:08:30.804Z,9.45
2018-09-10T18:10:59.882Z,9.85
2018-09-10T18:13:28.906Z,7.87
2018-09-10T18:15:57.894Z,15.28
2018-09-10T18:18:27.512Z,10.03
2018-09-10T18:20:56.725Z,9.38
2018-09-10T18:23:25.831Z,8.08
2018-09-10T18:25:55.131Z,8.73
2018-09-10T18:28:24.461Z,7.10
2018-09-10T18:30:53.928Z,9.00
2018-09-10T18:33:23.286Z,12.13
2018-09-10T18:35:52.521Z,7.67
2018-09-10T18:38:21.927Z,8.00
2018-09-10T18:40:50.938Z,5.72
2018-09-10T18:43:20.060Z,9.10
2018-09-10T18:45:49.238Z,9.33
2018-09-10T18:48:18.450Z,9.83
2018-09-10T18:50:47.454Z,7.85
2018-09-10T18:53:16.513Z,11.22
2018-09-10T18:55:45.641Z,11.55
2018-09-10T18:58:14.702Z,11.80
2018-09-10T19:00:43.911Z,9.45
2018-09-10T19:03:13.135Z,11.77
2018-09-10T19:05:42.199Z,11.57
2018-09-10T19:08:11.184Z,9.68
2018-09-10T19:10:40.242Z,11.35
2018-09-10T19:13:09.250Z,11.53
2018-09-10T19:15:38.527Z,10.32
2018-09-10T19:18:07.687Z,11.08
2018-09-10T19:20:36.774Z,15.60
2018-09-10T19:23:06.060Z,7.97
2018-09-10T19:25:35.158Z,11.25
2018-09-10T19:28:05.422Z,10.88
2018-09-10T19:30:34.799Z,8.98
2018-09-10T19:33:03.937Z,9.23
2018-09-10T19:35:33.014Z,13.45
2018-09-10T19:38:02.179Z,13.08
2018-09-10T19:40:31.267Z,10.85
2018-09-10T19:43:00.360Z,10.90
2018-09-10T19:45:29.499Z,12.25
2018-09-10T19:47:58.564Z,13.75
2018-09-10T19:50:27.577Z,13.55
2018-09-10T19:52:56.599Z,12.33
2018-09-10T19:55:25.509Z,12.28
2018-09-10T19:57:54.472Z,11.63
2018-09-10T20:00:23.626Z,11.00
2018-09-10T20:02:53.104Z,14.25
2018-09-10T20:05:22.245Z,12.40
2018-09-10T20:07:51.320Z,11.12
2018-09-10T20:10:20.364Z,10.05
2018-09-10T20:12:49.447Z,12.90
2018-09-10T20:15:18.536Z,13.40
2018-09-10T20:17:47.770Z,11.28
2018-09-10T20:20:17.057Z,10.20
2018-09-10T20:22:46.289Z,11.25
2018-09-10T20:25:15.882Z,10.10
2018-09-10T20:27:46.739Z,13.00
2018-09-10T20:30:15.859Z,9.60
2018-09-10T20:32:45.232Z,13.83
2018-09-10T20:35:14.487Z,12.63
2018-09-10T20:37:43.588Z,12.53
2018-09-10T20:40:12.691Z,10.40
2018-09-10T20:42:42.169Z,12.73
2018-09-10T20:45:11.216Z,14.38
2018-09-10T20:47:40.168Z,12.20
2018-09-10T20:50:09.583Z,13.05
2018-09-10T20:52:38.583Z,9.43
2018-09-10T20:55:07.530Z,18.40
2018-09-10T20:57:36.504Z,12.18
2018-09-10T21:00:05.527Z,13.68
2018-09-10T21:02:34.450Z,10.93
2018-09-10T21:05:03.409Z,15.75
2018-09-10T21:07:32.396Z,11.30
2018-09-10T21:10:01.582Z,15.53
2018-09-10T21:12:30.900Z,13.20
2018-09-10T21:15:00.076Z,13.53
2018-09-10T21:17:29.080Z,11.57
2018-09-10T21:19:58.466Z,12.78
2018-09-10T21:22:28.072Z,11.75
2018-09-10T21:24:57.476Z,13.10
2018-09-10T21:27:26.383Z,10.90
2018-09-10T21:29:55.329Z,13.95
2018-09-10T21:32:24.291Z,12.80
2018-09-10T21:34:53.197Z,10.93
2018-09-10T21:37:22.298Z,12.88
2018-09-10T21:39:51.600Z,12.28
2018-09-10T21:42:20.590Z,12.50
2018-09-10T21:44:49.528Z,9.68
2018-09-10T21:47:18.516Z,14.30
2018-09-10T21:49:47.453Z,14.40
2018-09-10T21:52:16.456Z,12.50
2018-09-10T21:54:45.393Z,14.15
2018-09-10T21:57:14.420Z,10.65
2018-09-10T21:59:43.375Z,13.10
2018-09-10T22:02:12.727Z,9.68
2018-09-10T22:04:41.865Z,10.88
2018-09-10T22:07:10.854Z,14.65
2018-09-10T22:09:39.947Z,12.98
2018-09-10T22:12:09.286Z,9.98
2018-09-10T22:14:38.351Z,12.00
2018-09-10T22:17:07.793Z,10.65
2018-09-10T22:19:36.778Z,11.90
2018-09-10T22:22:06.382Z,13.72
2018-09-10T22:24:35.396Z,11.85
2018-09-10T22:27:04.526Z,12.85
2018-09-10T22:29:33.489Z,11.20
2018-09-10T22:32:02.518Z,13.38
2018-09-10T22:34:31.508Z,12.53
2018-09-10T22:37:00.479Z,9.43
2018-09-10T22:39:29.432Z,13.85
2018-09-10T22:41:58.390Z,13.43
2018-09-10T22:44:28.735Z,11.45
2018-09-10T22:46:58.334Z,12.55
2018-09-10T22:49:27.302Z,13.48
2018-09-10T22:51:56.216Z,11.95
2018-09-10T22:54:25.152Z,13.13
2018-09-10T22:56:54.085Z,14.53
2018-09-10T22:59:23.011Z,10.05
2018-09-10T23:01:51.932Z,10.45
2018-09-10T23:04:20.900Z,10.25
2018-09-10T23:06:49.844Z,10.55
2018-09-10T23:09:18.828Z,12.33
2018-09-10T23:11:47.752Z,12.50
2018-09-10T23:14:16.892Z,10.08
2018-09-10T23:16:45.800Z,6.45
2018-09-10T23:19:14.742Z,8.38
2018-09-10T23:21:43.685Z,10.18
2018-09-10T23:24:12.640Z,9.73
2018-09-10T23:26:41.606Z,7.92
2018-09-10T23:29:10.520Z,9.53
2018-09-10T23:31:39.394Z,10.50
2018-09-10T23:34:08.312Z,9.23
2018-09-10T23:36:37.258Z,8.93
2018-09-10T23:39:08.028Z,12.33
2018-09-10T23:41:37.069Z,8.23
2018-09-10T23:44:06.681Z,10.85
2018-09-10T23:46:35.584Z,10.63
2018-09-10T23:49:04.953Z,11.00
2018-09-10T23:51:33.885Z,8.00
2018-09-10T23:54:02.816Z,10.72
2018-09-10T23:56:31.742Z,8.90
2018-09-10T23:59:00.652Z,10.78
